createdAt,value
2017-03-06T00:00:28.833Z,94.7
2017-03-06T00:01:38.292Z,94.6
2017-03-06T00:02:47.355Z,94.6
2017-03-06T00:03:57.186Z,94.56
2017-03-06T00:05:06.628Z,94.27
2017-03-06T00:06:16.872Z,94.56
2017-03-06T00:07:26.345Z,93.89
2017-03-06T00:08:35.789Z,94.46
2017-03-06T00:09:44.874Z,93.99
2017-03-06T00:10:54.340Z,94.46
2017-03-06T00:12:04.167Z,94.08
2017-03-06T00:13:13.991Z,94.46
2017-03-06T00:14:23.838Z,94.18
2017-03-06T00:15:33.279Z,93.99
2017-03-06T00:16:42.753Z,94.18
2017-03-06T00:17:52.965Z,93.89
2017-03-06T00:19:02.049Z,94.08
2017-03-06T00:20:11.485Z,94.37
2017-03-06T00:21:20.556Z,94.46
2017-03-06T00:22:29.649Z,94.37
2017-03-06T00:23:39.094Z,94.74
2017-03-06T00:24:48.550Z,95.03
2017-03-06T00:25:57.615Z,95.31
2017-03-06T00:27:06.680Z,95.5
2017-03-06T00:28:15.751Z,95.41
2017-03-06T00:29:25.198Z,94.93
2017-03-06T00:30:35.847Z,94.56
2017-03-06T00:31:45.298Z,94.46
2017-03-06T00:32:54.727Z,94.37
2017-03-06T00:34:03.818Z,94.37
2017-03-06T00:35:13.657Z,94.18
2017-03-06T00:36:23.509Z,94.37
2017-03-06T00:37:32.973Z,94.56
2017-03-06T00:38:42.030Z,94.65
2017-03-06T00:39:51.470Z,94.27
2017-03-06T00:41:00.919Z,94.37
2017-03-06T00:42:09.612Z,94.46
2017-03-06T00:43:18.686Z,94.27
2017-03-06T00:44:28.523Z,94.56
2017-03-06T00:45:37.599Z,94.56
2017-03-06T00:46:47.061Z,94.27
2017-03-06T00:47:56.126Z,94.46
2017-03-06T00:49:06.331Z,94.65
2017-03-06T00:50:15.426Z,95.31
2017-03-06T00:51:24.520Z,95.41
2017-03-06T00:52:33.973Z,95.31
2017-03-06T00:53:43.823Z,94.65
2017-03-06T00:54:53.263Z,94.84
2017-03-06T00:56:02.326Z,94.56
2017-03-06T00:57:11.392Z,94.27
2017-03-06T00:58:20.860Z,94.56
2017-03-06T00:59:30.712Z,94.27
2017-03-06T01:00:39.778Z,94.46
2017-03-06T01:01:49.212Z,94.65
2017-03-06T01:02:59.037Z,94.65
2017-03-06T01:04:08.481Z,94.37
2017-03-06T01:05:18.313Z,94.46
2017-03-06T01:06:28.150Z,94.56
2017-03-06T01:07:36.844Z,94.56
2017-03-06T01:08:46.682Z,94.93
2017-03-06T01:09:56.150Z,94.93
2017-03-06T01:11:05.214Z,94.65
2017-03-06T01:12:14.681Z,94.93
2017-03-06T01:13:24.506Z,95.5
2017-03-06T01:14:34.344Z,94.74
2017-03-06T01:15:43.802Z,94.46
2017-03-06T01:16:53.625Z,94.84
2017-03-06T01:18:03.077Z,94.74
2017-03-06T01:19:12.132Z,95.31
2017-03-06T01:20:21.203Z,95.12
2017-03-06T01:21:31.407Z,96.17
2017-03-06T01:22:40.851Z,96.08
2017-03-06T01:23:50.296Z,95.88
2017-03-06T01:24:59.739Z,95.88
2017-03-06T01:26:09.947Z,95.22
2017-03-06T01:27:19.406Z,95.12
2017-03-06T01:28:29.627Z,94.74
2017-03-06T01:29:39.074Z,94.74
2017-03-06T01:30:48.519Z,95.31
2017-03-06T01:31:57.592Z,95.12
2017-03-06T01:33:06.665Z,95.5
2017-03-06T01:34:15.739Z,95.41
2017-03-06T01:35:24.812Z,95.69
2017-03-06T01:36:34.653Z,95.12
2017-03-06T01:37:43.753Z,95.69
2017-03-06T01:38:52.812Z,95.5
2017-03-06T01:40:02.264Z,95.69
2017-03-06T01:41:12.112Z,95.6
2017-03-06T01:42:21.554Z,96.08
2017-03-06T01:43:30.625Z,95.98
2017-03-06T01:44:39.690Z,95.5
2017-03-06T01:45:48.759Z,96.08
2017-03-06T01:46:57.828Z,96.36
2017-03-06T01:48:06.888Z,96.83
2017-03-06T01:49:16.722Z,97.31
2017-03-06T01:50:26.160Z,97.4
2017-03-06T01:51:35.987Z,97.5
2017-03-06T01:52:45.813Z,97.5
2017-03-06T01:53:54.486Z,97.59
2017-03-06T01:55:04.321Z,97.88
2017-03-06T01:56:14.175Z,97.78
2017-03-06T01:57:23.242Z,97.69
2017-03-06T01:58:33.079Z,98.25
2017-03-06T01:59:42.551Z,98.07
2017-03-06T02:00:52.396Z,97.88
2017-03-06T02:02:01.880Z,97.97
2017-03-06T02:03:11.721Z,98.54
2017-03-06T02:04:20.807Z,98.35
2017-03-06T02:05:29.890Z,98.54
2017-03-06T02:06:39.724Z,98.63
2017-03-06T02:07:48.780Z,98.25
2017-03-06T02:08:58.635Z,98.63
2017-03-06T02:10:09.251Z,99.11
2017-03-06T02:11:18.696Z,98.63
2017-03-06T02:12:27.753Z,98.92
2017-03-06T02:13:37.610Z,99.01
2017-03-06T02:14:47.068Z,99.3
2017-03-06T02:15:56.541Z,98.92
2017-03-06T02:17:06.774Z,99.11
2017-03-06T02:18:15.859Z,99.49
2017-03-06T02:19:24.576Z,99.01
2017-03-06T02:20:33.648Z,99.3
2017-03-06T02:21:43.087Z,99.39
2017-03-06T02:22:52.167Z,99.87
2017-03-06T02:24:01.230Z,99.58
2017-03-06T02:25:11.063Z,99.68
2017-03-06T02:26:20.121Z,99.49
2017-03-06T02:27:29.573Z,99.77
2017-03-06T02:28:39.028Z,99.58
2017-03-06T02:29:48.856Z,99.77
2017-03-06T02:30:58.321Z,99.77
2017-03-06T02:32:07.787Z,99.68
2017-03-06T02:33:17.259Z,99.39
2017-03-06T02:34:26.732Z,99.68
2017-03-06T02:35:36.578Z,99.77
2017-03-06T02:36:46.047Z,99.87
2017-03-06T02:37:56.278Z,99.58
2017-03-06T02:39:04.974Z,99.99
2017-03-06T02:40:15.200Z,99.49
2017-03-06T02:41:25.412Z,99.11
2017-03-06T02:42:35.246Z,99.58
2017-03-06T02:43:45.067Z,99.49
2017-03-06T02:44:54.133Z,99.96
2017-03-06T02:46:03.574Z,99.68
2017-03-06T02:47:12.635Z,99.87
2017-03-06T02:48:22.483Z,99.99
2017-03-06T02:49:31.948Z,99.99
2017-03-06T02:50:41.010Z,99.99
2017-03-06T02:51:50.838Z,99.99
2017-03-06T02:53:00.659Z,99.99
2017-03-06T02:54:11.248Z,99.99
2017-03-06T02:55:20.308Z,99.99
2017-03-06T02:56:30.182Z,99.99
2017-03-06T02:57:39.624Z,99.99
2017-03-06T02:58:49.073Z,99.99
2017-03-06T02:59:58.515Z,99.99
2017-03-06T03:01:07.988Z,99.99
2017-03-06T03:02:18.192Z,99.99
2017-03-06T03:03:28.025Z,99.99
2017-03-06T03:04:36.716Z,99.99
2017-03-06T03:05:46.158Z,99.99
2017-03-06T03:06:55.608Z,99.99
2017-03-06T03:08:05.090Z,99.99
2017-03-06T03:09:14.539Z,99.99
2017-03-06T03:10:23.987Z,99.99
2017-03-06T03:11:34.211Z,99.99
2017-03-06T03:12:44.040Z,99.99
2017-03-06T03:13:53.862Z,99.99
2017-03-06T03:15:04.070Z,99.99
2017-03-06T03:16:13.155Z,99.99
2017-03-06T03:17:22.236Z,99.99
2017-03-06T03:18:32.065Z,99.99
2017-03-06T03:19:41.144Z,99.99
2017-03-06T03:20:50.224Z,99.99
2017-03-06T03:22:00.812Z,99.99
2017-03-06T03:23:10.277Z,99.99
2017-03-06T03:24:20.094Z,99.99
2017-03-06T03:25:30.311Z,99.99
2017-03-06T03:26:40.133Z,99.99
2017-03-06T03:27:49.211Z,99.99
2017-03-06T03:28:58.279Z,99.99
2017-03-06T03:30:08.118Z,99.99
2017-03-06T03:31:17.555Z,99.99
2017-03-06T03:32:27.772Z,99.99
2017-03-06T03:33:37.998Z,99.99
2017-03-06T03:34:47.063Z,99.99
2017-03-06T03:35:56.891Z,99.99
2017-03-06T03:37:06.354Z,99.99
2017-03-06T03:38:15.444Z,99.99
2017-03-06T03:39:24.930Z,99.99
2017-03-06T03:40:34.007Z,99.99
2017-03-06T03:41:44.599Z,99.99
2017-03-06T03:42:53.665Z,99.99
2017-03-06T03:44:03.126Z,99.99
2017-03-06T03:45:12.592Z,99.99
2017-03-06T03:46:21.667Z,99.99
2017-03-06T03:47:31.104Z,99.99
2017-03-06T03:48:40.552Z,99.99
2017-03-06T03:49:49.618Z,99.99
2017-03-06T03:50:59.843Z,99.99
2017-03-06T03:52:09.284Z,99.99
2017-03-06T03:53:18.386Z,99.99
2017-03-06T03:54:27.854Z,99.99
2017-03-06T03:55:37.675Z,99.99
2017-03-06T03:56:46.367Z,99.99
2017-03-06T03:57:55.829Z,99.99
2017-03-06T03:59:06.070Z,99.99
2017-03-06T04:00:15.534Z,99.99
2017-03-06T04:01:24.607Z,99.99
2017-03-06T04:02:34.052Z,99.99
2017-03-06T04:03:43.504Z,99.99
2017-03-06T04:04:52.562Z,99.99
2017-03-06T04:06:01.995Z,99.99
2017-03-06T04:07:11.440Z,99.99
2017-03-06T04:08:20.880Z,99.99
2017-03-06T04:09:30.712Z,99.99
2017-03-06T04:10:39.413Z,99.99
2017-03-06T04:11:48.891Z,99.99
2017-03-06T04:12:58.732Z,99.99
2017-03-06T04:14:08.941Z,99.99
2017-03-06T04:15:18.792Z,99.99
2017-03-06T04:16:27.885Z,99.99
2017-03-06T04:17:36.590Z,99.99
2017-03-06T04:18:46.043Z,99.99
2017-03-06T04:19:54.732Z,99.99
2017-03-06T04:21:03.429Z,99.99
2017-03-06T04:22:14.015Z,99.99
2017-03-06T04:23:23.475Z,99.99
2017-03-06T04:24:32.922Z,99.99
2017-03-06T04:25:42.384Z,99.99
2017-03-06T04:26:51.836Z,99.99
2017-03-06T04:28:00.551Z,99.99
2017-03-06T04:29:09.637Z,99.99
2017-03-06T04:30:18.695Z,99.99
2017-03-06T04:31:28.144Z,99.99
2017-03-06T04:32:37.588Z,99.99
2017-03-06T04:33:47.044Z,99.99
2017-03-06T04:34:56.481Z,99.99
2017-03-06T04:36:05.929Z,99.99
2017-03-06T04:37:15.367Z,99.99
2017-03-06T04:38:25.206Z,99.99
2017-03-06T04:39:34.685Z,99.99
2017-03-06T04:40:44.537Z,99.99
2017-03-06T04:41:54.006Z,99.99
2017-03-06T04:43:03.849Z,99.99
2017-03-06T04:44:13.295Z,99.99
2017-03-06T04:45:22.760Z,99.99
2017-03-06T04:46:31.828Z,99.99
2017-03-06T04:47:40.882Z,99.99
2017-03-06T04:48:50.376Z,99.99
2017-03-06T04:49:59.449Z,99.99
2017-03-06T04:51:08.889Z,99.99
2017-03-06T04:52:18.347Z,99.99
2017-03-06T04:53:27.405Z,99.99
2017-03-06T04:54:36.855Z,99.99
2017-03-06T04:55:46.314Z,99.99
2017-03-06T04:56:55.401Z,99.99
2017-03-06T04:58:05.230Z,99.99
2017-03-06T04:59:13.916Z,99.99
2017-03-06T05:00:23.771Z,99.99
2017-03-06T05:01:33.247Z,99.99
2017-03-06T05:02:43.067Z,99.99
2017-03-06T05:03:52.910Z,99.99
2017-03-06T05:05:02.360Z,99.99
2017-03-06T05:06:11.798Z,99.99
2017-03-06T05:07:21.245Z,99.99
2017-03-06T05:08:30.298Z,99.99
2017-03-06T05:09:39.369Z,99.99
2017-03-06T05:10:49.207Z,99.99
2017-03-06T05:11:58.281Z,99.99
2017-03-06T05:13:08.529Z,99.99
2017-03-06T05:14:17.596Z,99.99
2017-03-06T05:15:26.303Z,99.99
2017-03-06T05:16:35.008Z,99.99
2017-03-06T05:17:44.860Z,99.99
2017-03-06T05:18:54.321Z,99.99
2017-03-06T05:20:03.779Z,99.99
2017-03-06T05:21:12.468Z,99.99
2017-03-06T05:22:21.171Z,99.99
2017-03-06T05:23:30.631Z,99.99
2017-03-06T05:24:40.101Z,99.99
2017-03-06T05:25:49.962Z,99.99
2017-03-06T05:26:59.416Z,99.99
2017-03-06T05:28:08.881Z,99.99
2017-03-06T05:29:17.978Z,99.99
2017-03-06T05:30:27.822Z,99.99
2017-03-06T05:31:36.883Z,99.99
2017-03-06T05:32:45.582Z,99.99
2017-03-06T05:33:55.016Z,99.99
2017-03-06T05:35:04.489Z,99.99
2017-03-06T05:36:14.315Z,99.99
2017-03-06T05:37:23.396Z,99.99
2017-03-06T05:38:32.838Z,99.99
2017-03-06T05:39:43.068Z,99.99
2017-03-06T05:40:52.135Z,99.99
2017-03-06T05:42:01.589Z,99.99
2017-03-06T05:43:11.423Z,99.99
2017-03-06T05:44:21.268Z,99.99
2017-03-06T05:45:30.714Z,99.99
2017-03-06T05:46:40.155Z,99.99
2017-03-06T05:47:48.833Z,99.99
2017-03-06T05:48:58.652Z,99.99
2017-03-06T05:50:08.098Z,99.99
2017-03-06T05:51:17.153Z,99.99
2017-03-06T05:52:27.386Z,99.99
2017-03-06T05:53:36.835Z,99.99
2017-03-06T05:54:46.284Z,99.99
2017-03-06T05:55:55.744Z,99.99
2017-03-06T05:57:05.601Z,99.99
2017-03-06T05:58:14.686Z,99.99
2017-03-06T05:59:23.764Z,99.99
2017-03-06T06:00:33.624Z,99.99
2017-03-06T06:01:42.704Z,99.99
2017-03-06T06:02:52.554Z,99.99
2017-03-06T06:04:01.677Z,99.99
2017-03-06T06:05:10.742Z,99.99
2017-03-06T06:06:19.808Z,99.99
2017-03-06T06:07:29.283Z,99.99
2017-03-06T06:08:38.756Z,99.99
2017-03-06T06:09:47.856Z,99.99
2017-03-06T06:10:57.334Z,99.99
2017-03-06T06:12:06.789Z,99.99
2017-03-06T06:13:16.238Z,99.99
2017-03-06T06:14:25.690Z,99.99
2017-03-06T06:15:34.759Z,99.99
2017-03-06T06:16:44.221Z,99.99
2017-03-06T06:17:53.686Z,99.99
2017-03-06T06:19:03.524Z,99.99
2017-03-06T06:20:12.979Z,99.99
2017-03-06T06:21:22.449Z,99.99
2017-03-06T06:22:31.896Z,99.99
2017-03-06T06:23:41.351Z,99.99
2017-03-06T06:24:50.423Z,99.99
2017-03-06T06:25:59.504Z,99.99
2017-03-06T06:27:08.572Z,99.99
2017-03-06T06:28:18.408Z,99.99
2017-03-06T06:29:28.245Z,99.99
2017-03-06T06:30:37.316Z,99.99
2017-03-06T06:31:47.149Z,99.99
2017-03-06T06:32:56.224Z,99.99
2017-03-06T06:34:04.928Z,99.99
2017-03-06T06:35:13.992Z,99.99
2017-03-06T06:36:24.226Z,99.99
2017-03-06T06:37:34.062Z,99.99
2017-03-06T06:38:43.113Z,99.99
2017-03-06T06:39:52.940Z,99.99
2017-03-06T06:41:02.414Z,99.99
2017-03-06T06:42:11.476Z,99.99
2017-03-06T06:43:20.152Z,99.99
2017-03-06T06:44:29.616Z,99.99
2017-03-06T06:45:38.723Z,99.99
2017-03-06T06:46:47.799Z,99.99
2017-03-06T06:47:57.627Z,99.99
2017-03-06T06:49:07.094Z,99.99
2017-03-06T06:50:16.558Z,99.99
2017-03-06T06:51:25.257Z,99.99
2017-03-06T06:52:35.111Z,99.99
2017-03-06T06:53:44.563Z,99.99
2017-03-06T06:54:54.411Z,99.99
2017-03-06T06:56:03.484Z,99.99
2017-03-06T06:57:13.323Z,99.99
2017-03-06T06:58:23.170Z,99.99
2017-03-06T06:59:32.631Z,99.99
2017-03-06T07:00:41.710Z,99.99
2017-03-06T07:01:51.160Z,99.99
2017-03-06T07:03:00.625Z,99.99
2017-03-06T07:04:10.069Z,99.99
2017-03-06T07:05:19.537Z,99.99
2017-03-06T07:06:28.985Z,99.99
2017-03-06T07:07:38.818Z,99.99
2017-03-06T07:08:48.264Z,99.99
2017-03-06T07:09:57.351Z,99.99
2017-03-06T07:11:07.562Z,99.99
2017-03-06T07:12:17.387Z,99.99
2017-03-06T07:13:26.478Z,99.99
2017-03-06T07:14:35.540Z,99.99
2017-03-06T07:15:44.994Z,99.99
2017-03-06T07:16:53.685Z,99.99
2017-03-06T07:18:03.915Z,99.99
2017-03-06T07:19:13.761Z,99.99
2017-03-06T07:20:22.457Z,99.99
2017-03-06T07:21:31.924Z,99.99
2017-03-06T07:22:41.366Z,99.99
2017-03-06T07:23:50.843Z,99.99
2017-03-06T07:25:01.068Z,99.99
2017-03-06T07:26:10.523Z,99.99
2017-03-06T07:27:19.600Z,99.99
2017-03-06T07:28:29.462Z,99.99
2017-03-06T07:29:38.576Z,99.99
2017-03-06T07:30:47.254Z,99.99
2017-03-06T07:31:56.723Z,99.99
2017-03-06T07:33:05.808Z,99.99
2017-03-06T07:34:14.887Z,99.99
2017-03-06T07:35:23.955Z,99.99
2017-03-06T07:36:33.421Z,99.99
2017-03-06T07:37:42.863Z,99.99
2017-03-06T07:38:52.327Z,99.99
2017-03-06T07:40:01.408Z,99.99
2017-03-06T07:41:11.261Z,99.99
2017-03-06T07:42:20.349Z,99.99
2017-03-06T07:43:29.801Z,99.99
2017-03-06T07:44:38.883Z,99.99
2017-03-06T07:45:48.318Z,99.99
2017-03-06T07:46:58.912Z,99.99
2017-03-06T07:48:08.377Z,99.99
2017-03-06T07:49:17.839Z,99.99
2017-03-06T07:50:27.680Z,99.99
2017-03-06T07:51:37.134Z,99.99
2017-03-06T07:52:46.961Z,99.99
2017-03-06T07:53:56.781Z,99.99
2017-03-06T07:55:05.476Z,99.99
2017-03-06T07:56:15.318Z,99.99
2017-03-06T07:57:24.753Z,99.99
2017-03-06T07:58:33.460Z,99.99
2017-03-06T07:59:42.935Z,99.99
2017-03-06T08:00:52.395Z,99.99
2017-03-06T08:02:01.888Z,99.99
2017-03-06T08:03:11.349Z,99.99
2017-03-06T08:04:21.572Z,99.99
2017-03-06T08:05:31.025Z,99.99
2017-03-06T08:06:40.497Z,99.99
2017-03-06T08:07:49.547Z,99.99
2017-03-06T08:08:58.616Z,99.99
2017-03-06T08:10:08.080Z,99.99
2017-03-06T08:11:16.779Z,99.99
2017-03-06T08:12:25.464Z,99.99
2017-03-06T08:13:34.903Z,99.99
2017-03-06T08:14:43.987Z,99.99
2017-03-06T08:15:52.690Z,99.99
2017-03-06T08:17:02.894Z,99.99
2017-03-06T08:18:11.973Z,99.99
2017-03-06T08:19:21.059Z,99.99
2017-03-06T08:20:30.903Z,99.99
2017-03-06T08:21:40.010Z,99.99
2017-03-06T08:22:50.621Z,99.99
2017-03-06T08:24:00.073Z,99.99
2017-03-06T08:25:09.920Z,99.99
2017-03-06T08:26:19.740Z,99.99
2017-03-06T08:27:28.818Z,99.99
2017-03-06T08:28:37.882Z,99.99
2017-03-06T08:29:47.337Z,99.99
2017-03-06T08:30:56.797Z,99.99
2017-03-06T08:32:06.263Z,99.99
2017-03-06T08:33:15.728Z,99.99
2017-03-06T08:34:25.570Z,99.99
2017-03-06T08:35:34.633Z,99.99
2017-03-06T08:36:44.086Z,99.99
2017-03-06T08:37:53.539Z,99.99
2017-03-06T08:39:03.410Z,99.99
2017-03-06T08:40:12.477Z,99.99
2017-03-06T08:41:21.935Z,99.99
2017-03-06T08:42:30.631Z,99.99
2017-03-06T08:43:39.301Z,99.99
2017-03-06T08:44:49.140Z,99.99
2017-03-06T08:45:58.212Z,99.99
2017-03-06T08:47:07.326Z,99.99
2017-03-06T08:48:17.542Z,99.99
2017-03-06T08:49:27.385Z,99.99
2017-03-06T08:50:36.437Z,99.99
2017-03-06T08:51:46.666Z,99.99
2017-03-06T08:52:55.376Z,99.99
2017-03-06T08:54:04.435Z,99.99
2017-03-06T08:55:13.889Z,99.99
2017-03-06T08:56:23.341Z,99.99
2017-03-06T08:57:33.189Z,99.99
2017-03-06T08:58:43.049Z,99.99
2017-03-06T08:59:52.116Z,99.99
2017-03-06T09:01:01.576Z,99.99
2017-03-06T09:02:11.429Z,99.99
2017-03-06T09:03:20.924Z,99.99
2017-03-06T09:04:30.378Z,99.99
2017-03-06T09:05:39.819Z,99.99
2017-03-06T09:06:48.890Z,99.99
2017-03-06T09:07:58.728Z,99.99
2017-03-06T09:09:08.556Z,99.99
2017-03-06T09:10:18.020Z,99.99
2017-03-06T09:11:27.871Z,99.99
2017-03-06T09:12:36.957Z,99.99
2017-03-06T09:13:46.406Z,99.99
2017-03-06T09:14:56.240Z,99.99
2017-03-06T09:16:04.932Z,99.99
2017-03-06T09:17:15.142Z,99.99
2017-03-06T09:18:24.626Z,99.99
2017-03-06T09:19:34.083Z,99.99
2017-03-06T09:20:44.723Z,99.99
2017-03-06T09:21:54.186Z,99.99
2017-03-06T09:23:02.870Z,99.99
2017-03-06T09:24:11.561Z,99.99
2017-03-06T09:25:21.409Z,99.99
2017-03-06T09:26:30.881Z,99.99
2017-03-06T09:27:40.723Z,99.99
2017-03-06T09:28:49.788Z,99.99
2017-03-06T09:29:59.626Z,99.99
2017-03-06T09:31:09.846Z,99.99
2017-03-06T09:32:18.918Z,99.99
2017-03-06T09:33:28.031Z,99.99
2017-03-06T09:34:37.109Z,99.99
2017-03-06T09:35:46.562Z,99.99
2017-03-06T09:36:55.640Z,99.99
2017-03-06T09:38:05.482Z,99.99
2017-03-06T09:39:15.318Z,99.99
2017-03-06T09:40:24.758Z,99.99
2017-03-06T09:41:33.826Z,99.99
2017-03-06T09:42:43.662Z,99.99
2017-03-06T09:43:53.495Z,99.99
2017-03-06T09:45:02.562Z,99.99
2017-03-06T09:46:12.007Z,99.99
2017-03-06T09:47:21.074Z,99.99
2017-03-06T09:48:29.753Z,99.99
2017-03-06T09:49:39.204Z,99.99
2017-03-06T09:50:48.657Z,99.99
2017-03-06T09:51:58.128Z,99.99
2017-03-06T09:53:07.611Z,99.99
2017-03-06T09:54:17.432Z,99.99
2017-03-06T09:55:27.339Z,99.99
2017-03-06T09:56:36.806Z,99.99
2017-03-06T09:57:45.511Z,99.99
2017-03-06T09:58:55.335Z,99.99
2017-03-06T10:00:04.395Z,99.99
2017-03-06T10:01:13.850Z,99.99
2017-03-06T10:02:22.554Z,99.99
2017-03-06T10:03:31.630Z,99.99
2017-03-06T10:04:42.243Z,99.99
2017-03-06T10:05:50.934Z,99.99
2017-03-06T10:07:01.165Z,99.99
2017-03-06T10:08:11.022Z,99.99
2017-03-06T10:09:20.852Z,99.99
2017-03-06T10:10:31.071Z,99.99
2017-03-06T10:11:40.547Z,99.99
2017-03-06T10:12:49.995Z,99.99
2017-03-06T10:13:59.052Z,99.99
2017-03-06T10:15:08.106Z,99.99
2017-03-06T10:16:17.954Z,99.99
2017-03-06T10:17:27.423Z,99.99
2017-03-06T10:18:36.866Z,99.99
2017-03-06T10:19:46.711Z,99.99
2017-03-06T10:20:55.794Z,99.99
2017-03-06T10:22:04.856Z,99.99
2017-03-06T10:23:14.704Z,99.99
2017-03-06T10:24:24.178Z,99.99
2017-03-06T10:25:34.060Z,99.99
2017-03-06T10:26:43.928Z,99.4
2017-03-06T10:27:53.011Z,99.3
2017-03-06T10:29:03.228Z,98.17
2017-03-06T10:30:12.682Z,98.12
2017-03-06T10:31:21.750Z,97.55
2017-03-06T10:32:31.241Z,98.31
2017-03-06T10:33:40.693Z,98.5
2017-03-06T10:34:49.785Z,98.5
2017-03-06T10:35:59.633Z,98.69
2017-03-06T10:37:08.316Z,97.55
2017-03-06T10:38:17.418Z,97.88
2017-03-06T10:39:27.259Z,98.07
2017-03-06T10:40:36.717Z,98.54
2017-03-06T10:41:45.798Z,99.21
2017-03-06T10:42:55.655Z,99.02
2017-03-06T10:44:05.119Z,99.21
2017-03-06T10:45:14.944Z,99.87
2017-03-06T10:46:24.450Z,99.99
2017-03-06T10:47:33.541Z,99.99
2017-03-06T10:48:43.362Z,99.99
2017-03-06T10:49:52.105Z,99.99
2017-03-06T10:51:00.814Z,99.99
2017-03-06T10:52:10.653Z,99.99
2017-03-06T10:53:19.743Z,99.92
2017-03-06T10:54:29.576Z,99.99
2017-03-06T10:55:39.408Z,99.99
2017-03-06T10:56:48.859Z,99.99
2017-03-06T10:57:58.317Z,99.92
2017-03-06T10:59:07.791Z,99.99
2017-03-06T11:00:18.003Z,99.92
2017-03-06T11:01:28.222Z,99.99
2017-03-06T11:02:37.690Z,99.99
2017-03-06T11:03:47.521Z,99.99
2017-03-06T11:04:56.591Z,99.99
2017-03-06T11:06:06.065Z,99.99
2017-03-06T11:07:15.531Z,99.73
2017-03-06T11:08:24.998Z,99.92
2017-03-06T11:09:34.069Z,99.99
2017-03-06T11:10:43.528Z,99.99
2017-03-06T11:11:52.976Z,99.54
2017-03-06T11:13:02.459Z,99.44
2017-03-06T11:14:11.907Z,99.99
2017-03-06T11:15:21.392Z,99.4
2017-03-06T11:16:31.216Z,98.07
2017-03-06T11:17:41.042Z,97.78
2017-03-06T11:18:50.112Z,97.41
2017-03-06T11:19:59.176Z,97.41
2017-03-06T11:21:08.663Z,97.6
2017-03-06T11:22:18.150Z,97.41
2017-03-06T11:23:27.607Z,96.93
2017-03-06T11:24:37.820Z,97.69
2017-03-06T11:25:48.050Z,97.41
2017-03-06T11:26:57.908Z,96.93
2017-03-06T11:28:07.743Z,96.93
2017-03-06T11:29:17.228Z,96.5
2017-03-06T11:30:26.286Z,96.22
2017-03-06T11:31:35.375Z,96.22
2017-03-06T11:32:44.061Z,96.5
2017-03-06T11:33:53.511Z,96.41
2017-03-06T11:35:02.985Z,96.03
2017-03-06T11:36:12.058Z,96.03
2017-03-06T11:37:21.113Z,95.75
2017-03-06T11:38:29.823Z,95.27
2017-03-06T11:39:39.280Z,95.94
2017-03-06T11:40:48.725Z,96.88
2017-03-06T11:41:58.171Z,96.5
2017-03-06T11:43:07.636Z,96.5
2017-03-06T11:44:17.109Z,96.22
2017-03-06T11:45:25.804Z,95.55
2017-03-06T11:46:35.247Z,95.65
2017-03-06T11:47:45.103Z,96.22
2017-03-06T11:48:54.944Z,96.5
2017-03-06T11:50:04.785Z,96.5
2017-03-06T11:51:14.638Z,96.69
2017-03-06T11:52:24.085Z,96.31
2017-03-06T11:53:33.561Z,96.22
2017-03-06T11:54:43.010Z,96.41
2017-03-06T11:55:52.853Z,96.41
2017-03-06T11:57:02.313Z,96.41
2017-03-06T11:58:11.008Z,96.6
2017-03-06T11:59:20.846Z,96.03
2017-03-06T12:00:29.905Z,96.22
2017-03-06T12:01:38.968Z,96.31
2017-03-06T12:02:48.445Z,96.31
2017-03-06T12:03:57.519Z,95.65
2017-03-06T12:05:07.007Z,95.75
2017-03-06T12:06:16.071Z,95.75
2017-03-06T12:07:25.906Z,96.31
2017-03-06T12:08:35.363Z,96.31
2017-03-06T12:09:44.433Z,95.84
2017-03-06T12:10:53.895Z,96.41
2017-03-06T12:12:03.350Z,96.79
2017-03-06T12:13:12.824Z,96.79
2017-03-06T12:14:22.672Z,96.93
2017-03-06T12:15:31.801Z,96.74
2017-03-06T12:16:41.655Z,97.02
2017-03-06T12:17:51.107Z,97.22
2017-03-06T12:18:59.805Z,97.5
2017-03-06T12:20:09.255Z,97.22
2017-03-06T12:21:19.107Z,97.5
2017-03-06T12:22:28.556Z,98.07
2017-03-06T12:23:37.998Z,97.88
2017-03-06T12:24:47.450Z,98.16
2017-03-06T12:25:57.667Z,98.35
2017-03-06T12:27:06.762Z,98.54
2017-03-06T12:28:16.971Z,98.73
2017-03-06T12:29:26.813Z,99.16
2017-03-06T12:30:35.896Z,99.11
2017-03-06T12:31:45.355Z,98.97
2017-03-06T12:32:54.797Z,99.54
2017-03-06T12:34:03.856Z,99.44
2017-03-06T12:35:12.921Z,99.54
2017-03-06T12:36:22.384Z,99.44
2017-03-06T12:37:31.830Z,99.64
2017-03-06T12:38:41.297Z,99.35
2017-03-06T12:39:50.369Z,99.44
2017-03-06T12:40:59.834Z,99.54
2017-03-06T12:42:09.288Z,99.26
2017-03-06T12:43:19.106Z,99.07
2017-03-06T12:44:29.323Z,98.69
2017-03-06T12:45:38.791Z,98.5
2017-03-06T12:46:48.247Z,98.31
2017-03-06T12:47:57.328Z,98.4
2017-03-06T12:49:06.427Z,98.4
2017-03-06T12:50:15.891Z,98.4
2017-03-06T12:51:25.732Z,97.45
2017-03-06T12:52:35.568Z,97.55
2017-03-06T12:53:45.419Z,97.27
2017-03-06T12:54:54.473Z,97.07
2017-03-06T12:56:04.318Z,97.36
2017-03-06T12:57:13.394Z,97.55
2017-03-06T12:58:22.838Z,97.64
2017-03-06T12:59:32.285Z,97.36
2017-03-06T13:00:42.144Z,96.74
2017-03-06T13:01:51.596Z,95.7
2017-03-06T13:03:00.684Z,95.22
2017-03-06T13:04:09.753Z,95.12
2017-03-06T13:05:19.963Z,95.03
2017-03-06T13:06:29.837Z,95.08
2017-03-06T13:07:38.937Z,95.08
2017-03-06T13:08:48.420Z,94.65
2017-03-06T13:09:57.484Z,94.74
2017-03-06T13:11:06.950Z,94.42
2017-03-06T13:12:16.405Z,94.79
2017-03-06T13:13:25.870Z,93.94
2017-03-06T13:14:34.951Z,94.7
2017-03-06T13:15:43.653Z,95.27
2017-03-06T13:16:53.120Z,94.79
2017-03-06T13:18:02.187Z,94.42
2017-03-06T13:19:11.266Z,94.6
2017-03-06T13:20:21.100Z,95.08
2017-03-06T13:21:30.560Z,94.79
2017-03-06T13:22:40.389Z,95.08
2017-03-06T13:23:50.235Z,94.98
2017-03-06T13:24:59.312Z,94.98
2017-03-06T13:26:08.405Z,94.7
2017-03-06T13:27:18.250Z,94.51
2017-03-06T13:28:28.076Z,94.51
2017-03-06T13:29:37.927Z,94.51
2017-03-06T13:30:47.775Z,94.89
2017-03-06T13:31:57.235Z,94.79
2017-03-06T13:33:06.714Z,94.98
2017-03-06T13:34:15.792Z,95.17
2017-03-06T13:35:25.244Z,95.36
2017-03-06T13:36:34.305Z,94.79
2017-03-06T13:37:43.770Z,94.42
2017-03-06T13:38:53.229Z,94.42
2017-03-06T13:40:03.063Z,94.42
2017-03-06T13:41:12.908Z,94.51
2017-03-06T13:42:22.357Z,94.6
2017-03-06T13:43:32.956Z,94.42
2017-03-06T13:44:42.450Z,94.79
2017-03-06T13:45:51.894Z,94.98
2017-03-06T13:47:01.744Z,95.65
2017-03-06T13:48:11.582Z,95.17
2017-03-06T13:49:20.655Z,95.36
2017-03-06T13:50:29.722Z,95.46
2017-03-06T13:51:39.202Z,94.79
2017-03-06T13:52:48.662Z,95.65
2017-03-06T13:53:58.909Z,95.55
2017-03-06T13:55:08.754Z,95.08
2017-03-06T13:56:18.581Z,95.36
2017-03-06T13:57:28.059Z,94.7
2017-03-06T13:58:38.280Z,95.08
2017-03-06T13:59:47.331Z,94.98
2017-03-06T14:00:56.034Z,95.36
2017-03-06T14:02:05.501Z,95.17
2017-03-06T14:03:14.953Z,95.94
2017-03-06T14:04:25.166Z,95.75
2017-03-06T14:05:35.402Z,96.03
2017-03-06T14:06:45.239Z,96.12
2017-03-06T14:07:54.697Z,96.12
2017-03-06T14:09:03.769Z,96.12
2017-03-06T14:10:13.625Z,95.55
2017-03-06T14:11:22.700Z,95.27
2017-03-06T14:12:32.547Z,95.08
2017-03-06T14:13:41.613Z,94.89
2017-03-06T14:14:51.442Z,93.94
2017-03-06T14:16:01.276Z,93.18
2017-03-06T14:17:10.757Z,93.27
2017-03-06T14:18:20.213Z,92.9
2017-03-06T14:19:29.279Z,92.99
2017-03-06T14:20:39.537Z,92.71
2017-03-06T14:21:48.612Z,92.42
2017-03-06T14:22:57.714Z,92.71
2017-03-06T14:24:07.567Z,92.71
2017-03-06T14:25:17.402Z,92.61
2017-03-06T14:26:26.854Z,92.32
2017-03-06T14:27:36.311Z,91.94
2017-03-06T14:28:45.765Z,92.32
2017-03-06T14:29:55.220Z,92.42
2017-03-06T14:31:05.068Z,92.23
2017-03-06T14:32:14.937Z,92.9
2017-03-06T14:33:24.004Z,92.13
2017-03-06T14:34:32.687Z,92.13
2017-03-06T14:35:41.758Z,92.51
2017-03-06T14:36:51.220Z,92.13
2017-03-06T14:38:00.705Z,91.94
2017-03-06T14:39:10.921Z,92.32
2017-03-06T14:40:21.510Z,91.94
2017-03-06T14:41:30.958Z,91.85
2017-03-06T14:42:40.802Z,92.71
2017-03-06T14:43:51.031Z,92.8
2017-03-06T14:45:00.481Z,92.71
2017-03-06T14:46:10.328Z,92.71
2017-03-06T14:47:19.792Z,92.61
2017-03-06T14:48:29.270Z,92.51
2017-03-06T14:49:38.727Z,92.51
2017-03-06T14:50:48.178Z,92.71
2017-03-06T14:51:56.888Z,92.99
2017-03-06T14:53:06.740Z,92.51
2017-03-06T14:54:15.823Z,92.13
2017-03-06T14:55:24.894Z,92.04
2017-03-06T14:56:33.586Z,92.32